sensor_id;sensor_type;location;lat;lon;timestamp;temperature;humidity
54260;DHT22;40172;53.022;7.012;2023-08-17T00:00:28;15.20;99.90
54260;DHT22;40172;53.022;7.012;2023-08-17T00:02:54;15.30;99.90
54260;DHT22;40172;53.022;7.012;2023-08-17T00:05:19;15.30;99.90
54260;DHT22;40172;53.022;7.012;2023-08-17T00:07:45;15.30;99.90
54260;DHT22;40172;53.022;7.012;2023-08-17T00:10:10;15.30;99.90
54260;DHT22;40172;53.022;7.012;2023-08-17T00:12:36;15.30;99.90
54260;DHT22;40172;53.022;7.012;2023-08-17T00:15:01;15.30;99.90
54260;DHT22;40172;53.022;7.012;2023-08-17T00:17:27;15.30;99.90
54260;DHT22;40172;53.022;7.012;2023-08-17T00:19:53;15.30;99.90
54260;DHT22;40172;53.022;7.012;2023-08-17T00:22:18;15.20;99.90
54260;DHT22;40172;53.022;7.012;2023-08-17T00:24:44;15.20;99.90
54260;DHT22;40172;53.022;7.012;2023-08-17T00:27:10;15.20;99.90
54260;DHT22;40172;53.022;7.012;2023-08-17T00:29:36;15.20;99.90
54260;DHT22;40172;53.022;7.012;2023-08-17T00:32:03;15.10;99.90
54260;DHT22;40172;53.022;7.012;2023-08-17T00:34:28;15.10;99.90
54260;DHT22;40172;53.022;7.012;2023-08-17T00:36:54;15.10;99.90
54260;DHT22;40172;53.022;7.012;2023-08-17T00:39:19;15.10;99.90
54260;DHT22;40172;53.022;7.012;2023-08-17T00:41:45;15.10;99.90
54260;DHT22;40172;53.022;7.012;2023-08-17T00:44:11;15.10;99.90
54260;DHT22;40172;53.022;7.012;2023-08-17T00:46:38;15.10;99.90
54260;DHT22;40172;53.022;7.012;2023-08-17T00:49:04;15.40;99.90
54260;DHT22;40172;53.022;7.012;2023-08-17T00:51:29;15.10;99.90
54260;DHT22;40172;53.022;7.012;2023-08-17T00:53:58;15.10;99.90
54260;DHT22;40172;53.022;7.012;2023-08-17T00:56:24;15.10;99.90
54260;DHT22;40172;53.022;7.012;2023-08-17T00:58:50;15.20;99.90
54260;DHT22;40172;53.022;7.012;2023-08-17T01:01:16;15.20;99.90
54260;DHT22;40172;53.022;7.012;2023-08-17T01:03:42;15.10;99.90
54260;DHT22;40172;53.022;7.012;2023-08-17T01:06:09;15.20;99.90
54260;DHT22;40172;53.022;7.012;2023-08-17T01:08:35;15.20;99.90
54260;DHT22;40172;53.022;7.012;2023-08-17T01:11:13;15.20;99.90
54260;DHT22;40172;53.022;7.012;2023-08-17T01:13:56;15.20;99.90
54260;DHT22;40172;53.022;7.012;2023-08-17T01:16:28;15.20;99.90
54260;DHT22;40172;53.022;7.012;2023-08-17T01:18:55;15.20;99.90
54260;DHT22;40172;53.022;7.012;2023-08-17T01:21:24;15.20;99.90
54260;DHT22;40172;53.022;7.012;2023-08-17T01:23:50;15.20;99.90
54260;DHT22;40172;53.022;7.012;2023-08-17T01:26:16;15.20;99.90
54260;DHT22;40172;53.022;7.012;2023-08-17T01:28:46;15.20;99.90
54260;DHT22;40172;53.022;7.012;2023-08-17T01:31:21;15.20;99.90
54260;DHT22;40172;53.022;7.012;2023-08-17T01:33:55;15.20;99.90
54260;DHT22;40172;53.022;7.012;2023-08-17T01:36:42;15.20;99.90
54260;DHT22;40172;53.022;7.012;2023-08-17T01:39:10;15.30;99.90
54260;DHT22;40172;53.022;7.012;2023-08-17T01:41:37;15.20;99.90
54260;DHT22;40172;53.022;7.012;2023-08-17T01:44:04;15.20;99.90
54260;DHT22;40172;53.022;7.012;2023-08-17T01:46:32;15.30;99.90
54260;DHT22;40172;53.022;7.012;2023-08-17T01:48:58;15.30;99.90
54260;DHT22;40172;53.022;7.012;2023-08-17T01:51:23;15.30;99.90
54260;DHT22;40172;53.022;7.012;2023-08-17T01:53:50;15.30;99.90
54260;DHT22;40172;53.022;7.012;2023-08-17T01:56:16;15.30;99.90
54260;DHT22;40172;53.022;7.012;2023-08-17T01:58:42;15.30;99.90
54260;DHT22;40172;53.022;7.012;2023-08-17T02:01:08;15.30;99.90
54260;DHT22;40172;53.022;7.012;2023-08-17T02:03:33;15.30;99.90
54260;DHT22;40172;53.022;7.012;2023-08-17T02:05:59;15.30;99.90
54260;DHT22;40172;53.022;7.012;2023-08-17T02:08:25;15.30;99.90
54260;DHT22;40172;53.022;7.012;2023-08-17T02:10:51;15.90;99.90
54260;DHT22;40172;53.022;7.012;2023-08-17T02:13:18;15.30;99.90
54260;DHT22;40172;53.022;7.012;2023-08-17T02:15:44;15.30;99.90
54260;DHT22;40172;53.022;7.012;2023-08-17T02:18:10;15.30;99.90
54260;DHT22;40172;53.022;7.012;2023-08-17T02:20:35;15.20;99.90
54260;DHT22;40172;53.022;7.012;2023-08-17T02:23:01;15.20;99.90
54260;DHT22;40172;53.022;7.012;2023-08-17T02:25:27;15.20;99.90
54260;DHT22;40172;53.022;7.012;2023-08-17T02:27:59;15.20;99.90
54260;DHT22;40172;53.022;7.012;2023-08-17T02:30:25;15.20;99.90
54260;DHT22;40172;53.022;7.012;2023-08-17T02:32:51;15.30;99.90
54260;DHT22;40172;53.022;7.012;2023-08-17T02:35:16;15.30;99.90
54260;DHT22;40172;53.022;7.012;2023-08-17T02:37:42;15.50;99.90
54260;DHT22;40172;53.022;7.012;2023-08-17T02:40:08;15.20;99.90
54260;DHT22;40172;53.022;7.012;2023-08-17T02:42:33;15.20;99.90
54260;DHT22;40172;53.022;7.012;2023-08-17T02:44:59;15.20;99.90
54260;DHT22;40172;53.022;7.012;2023-08-17T02:47:24;15.20;99.90
54260;DHT22;40172;53.022;7.012;2023-08-17T02:49:50;15.10;99.90
54260;DHT22;40172;53.022;7.012;2023-08-17T02:52:16;15.10;99.90
54260;DHT22;40172;53.022;7.012;2023-08-17T02:54:41;15.10;99.90
54260;DHT22;40172;53.022;7.012;2023-08-17T02:57:08;15.10;99.90
54260;DHT22;40172;53.022;7.012;2023-08-17T02:59:33;15.10;99.90
54260;DHT22;40172;53.022;7.012;2023-08-17T03:01:59;15.10;99.90
54260;DHT22;40172;53.022;7.012;2023-08-17T03:04:24;15.10;99.90
54260;DHT22;40172;53.022;7.012;2023-08-17T03:06:50;15.10;99.90
54260;DHT22;40172;53.022;7.012;2023-08-17T03:09:15;15.10;99.90
54260;DHT22;40172;53.022;7.012;2023-08-17T03:11:41;15.10;99.90
54260;DHT22;40172;53.022;7.012;2023-08-17T03:14:07;15.10;99.90
54260;DHT22;40172;53.022;7.012;2023-08-17T03:16:32;15.10;99.90
54260;DHT22;40172;53.022;7.012;2023-08-17T03:18:58;15.10;99.90
54260;DHT22;40172;53.022;7.012;2023-08-17T03:21:23;15.10;99.90
54260;DHT22;40172;53.022;7.012;2023-08-17T03:23:49;15.20;99.90
54260;DHT22;40172;53.022;7.012;2023-08-17T03:26:15;15.20;99.90
54260;DHT22;40172;53.022;7.012;2023-08-17T03:28:41;15.20;99.90
54260;DHT22;40172;53.022;7.012;2023-08-17T03:31:07;15.20;99.90
54260;DHT22;40172;53.022;7.012;2023-08-17T03:33:34;15.20;99.90
54260;DHT22;40172;53.022;7.012;2023-08-17T03:36:00;15.20;99.90
54260;DHT22;40172;53.022;7.012;2023-08-17T03:38:26;15.30;99.90
54260;DHT22;40172;53.022;7.012;2023-08-17T03:40:52;15.20;99.90
54260;DHT22;40172;53.022;7.012;2023-08-17T03:43:17;15.20;99.90
54260;DHT22;40172;53.022;7.012;2023-08-17T03:45:43;15.20;99.90
54260;DHT22;40172;53.022;7.012;2023-08-17T03:48:09;15.20;99.90
54260;DHT22;40172;53.022;7.012;2023-08-17T03:50:35;15.20;99.90
54260;DHT22;40172;53.022;7.012;2023-08-17T03:53:01;15.10;99.90
54260;DHT22;40172;53.022;7.012;2023-08-17T03:55:26;15.20;99.90
54260;DHT22;40172;53.022;7.012;2023-08-17T03:57:52;15.10;99.90
54260;DHT22;40172;53.022;7.012;2023-08-17T04:00:17;15.20;99.90
54260;DHT22;40172;53.022;7.012;2023-08-17T04:02:43;15.20;99.90
54260;DHT22;40172;53.022;7.012;2023-08-17T04:05:09;15.20;99.90
54260;DHT22;40172;53.022;7.012;2023-08-17T04:07:34;15.20;99.90
54260;DHT22;40172;53.022;7.012;2023-08-17T04:10:00;15.30;99.90
54260;DHT22;40172;53.022;7.012;2023-08-17T04:12:26;15.30;99.90
54260;DHT22;40172;53.022;7.012;2023-08-17T04:14:51;15.30;99.90
54260;DHT22;40172;53.022;7.012;2023-08-17T04:17:17;15.30;99.90
54260;DHT22;40172;53.022;7.012;2023-08-17T04:19:42;15.30;99.90
54260;DHT22;40172;53.022;7.012;2023-08-17T04:22:08;15.30;99.90
54260;DHT22;40172;53.022;7.012;2023-08-17T04:24:34;15.40;99.90
54260;DHT22;40172;53.022;7.012;2023-08-17T04:26:59;15.40;99.90
54260;DHT22;40172;53.022;7.012;2023-08-17T04:29:25;15.40;99.90
54260;DHT22;40172;53.022;7.012;2023-08-17T04:31:50;15.40;99.90
54260;DHT22;40172;53.022;7.012;2023-08-17T04:34:16;15.40;99.90
54260;DHT22;40172;53.022;7.012;2023-08-17T04:36:42;15.40;99.90
54260;DHT22;40172;53.022;7.012;2023-08-17T04:39:07;15.40;99.90
54260;DHT22;40172;53.022;7.012;2023-08-17T04:41:34;15.40;99.90
54260;DHT22;40172;53.022;7.012;2023-08-17T04:44:00;15.40;99.90
54260;DHT22;40172;53.022;7.012;2023-08-17T04:46:25;15.40;99.90
54260;DHT22;40172;53.022;7.012;2023-08-17T04:48:51;15.40;99.90
54260;DHT22;40172;53.022;7.012;2023-08-17T04:51:17;15.50;99.90
54260;DHT22;40172;53.022;7.012;2023-08-17T04:53:43;15.50;99.90
54260;DHT22;40172;53.022;7.012;2023-08-17T04:56:09;15.50;99.90
54260;DHT22;40172;53.022;7.012;2023-08-17T04:58:34;15.50;99.90
54260;DHT22;40172;53.022;7.012;2023-08-17T05:01:00;15.50;99.90
54260;DHT22;40172;53.022;7.012;2023-08-17T05:03:25;15.50;99.90
54260;DHT22;40172;53.022;7.012;2023-08-17T05:05:54;15.60;99.90
54260;DHT22;40172;53.022;7.012;2023-08-17T05:08:20;15.60;99.90
54260;DHT22;40172;53.022;7.012;2023-08-17T05:10:47;15.60;99.90
54260;DHT22;40172;53.022;7.012;2023-08-17T05:13:13;15.60;99.90
54260;DHT22;40172;53.022;7.012;2023-08-17T05:15:39;15.60;99.90
54260;DHT22;40172;53.022;7.012;2023-08-17T05:18:05;15.60;99.90
54260;DHT22;40172;53.022;7.012;2023-08-17T05:20:30;15.60;99.90
54260;DHT22;40172;53.022;7.012;2023-08-17T05:22:56;15.60;99.90
54260;DHT22;40172;53.022;7.012;2023-08-17T05:25:21;15.60;99.90
54260;DHT22;40172;53.022;7.012;2023-08-17T05:27:48;15.60;99.90
54260;DHT22;40172;53.022;7.012;2023-08-17T05:30:15;15.60;99.90
54260;DHT22;40172;53.022;7.012;2023-08-17T05:32:41;15.60;99.90
54260;DHT22;40172;53.022;7.012;2023-08-17T05:35:07;15.60;99.90
54260;DHT22;40172;53.022;7.012;2023-08-17T05:37:32;15.60;99.90
54260;DHT22;40172;53.022;7.012;2023-08-17T05:39:58;15.60;99.90
54260;DHT22;40172;53.022;7.012;2023-08-17T05:42:24;15.50;99.90
54260;DHT22;40172;53.022;7.012;2023-08-17T05:44:49;15.50;99.90
54260;DHT22;40172;53.022;7.012;2023-08-17T05:47:15;15.50;99.90
54260;DHT22;40172;53.022;7.012;2023-08-17T05:49:43;15.60;99.90
54260;DHT22;40172;53.022;7.012;2023-08-17T05:52:09;15.60;99.90
54260;DHT22;40172;53.022;7.012;2023-08-17T05:54:34;15.60;99.90
54260;DHT22;40172;53.022;7.012;2023-08-17T05:57:01;15.70;99.90
54260;DHT22;40172;53.022;7.012;2023-08-17T05:59:26;15.70;99.90
54260;DHT22;40172;53.022;7.012;2023-08-17T06:01:52;15.80;99.90
54260;DHT22;40172;53.022;7.012;2023-08-17T06:04:17;15.90;99.90
54260;DHT22;40172;53.022;7.012;2023-08-17T06:06:43;16.00;99.90
54260;DHT22;40172;53.022;7.012;2023-08-17T06:09:09;16.10;99.90
54260;DHT22;40172;53.022;7.012;2023-08-17T06:11:34;16.10;99.90
54260;DHT22;40172;53.022;7.012;2023-08-17T06:14:00;16.20;99.90
54260;DHT22;40172;53.022;7.012;2023-08-17T06:16:26;16.20;99.90
54260;DHT22;40172;53.022;7.012;2023-08-17T06:18:53;17.20;99.90
54260;DHT22;40172;53.022;7.012;2023-08-17T06:21:19;16.20;99.90
54260;DHT22;40172;53.022;7.012;2023-08-17T06:23:44;16.30;99.90
54260;DHT22;40172;53.022;7.012;2023-08-17T06:26:10;16.30;99.90
54260;DHT22;40172;53.022;7.012;2023-08-17T06:28:35;16.40;99.90
54260;DHT22;40172;53.022;7.012;2023-08-17T06:31:01;16.40;99.90
54260;DHT22;40172;53.022;7.012;2023-08-17T06:33:27;16.40;99.90
54260;DHT22;40172;53.022;7.012;2023-08-17T06:35:52;16.50;99.90
54260;DHT22;40172;53.022;7.012;2023-08-17T06:38:18;16.50;99.90
54260;DHT22;40172;53.022;7.012;2023-08-17T06:40:45;16.50;99.90
54260;DHT22;40172;53.022;7.012;2023-08-17T06:43:10;16.60;99.90
54260;DHT22;40172;53.022;7.012;2023-08-17T06:45:36;16.60;99.90
54260;DHT22;40172;53.022;7.012;2023-08-17T06:48:02;16.60;99.90
54260;DHT22;40172;53.022;7.012;2023-08-17T06:50:27;16.70;99.90
54260;DHT22;40172;53.022;7.012;2023-08-17T06:52:54;16.70;99.90
54260;DHT22;40172;53.022;7.012;2023-08-17T06:55:19;16.80;99.90
54260;DHT22;40172;53.022;7.012;2023-08-17T06:57:45;16.80;99.90
54260;DHT22;40172;53.022;7.012;2023-08-17T07:00:11;16.80;99.90
54260;DHT22;40172;53.022;7.012;2023-08-17T07:02:37;16.90;99.90
54260;DHT22;40172;53.022;7.012;2023-08-17T07:05:03;16.90;99.90
54260;DHT22;40172;53.022;7.012;2023-08-17T07:07:30;17.00;99.90
54260;DHT22;40172;53.022;7.012;2023-08-17T07:09:57;17.10;99.90
54260;DHT22;40172;53.022;7.012;2023-08-17T07:12:23;17.20;99.90
54260;DHT22;40172;53.022;7.012;2023-08-17T07:14:49;17.30;99.90
54260;DHT22;40172;53.022;7.012;2023-08-17T07:17:15;17.30;99.90
54260;DHT22;40172;53.022;7.012;2023-08-17T07:19:41;17.30;99.90
54260;DHT22;40172;53.022;7.012;2023-08-17T07:22:06;17.30;99.90
54260;DHT22;40172;53.022;7.012;2023-08-17T07:24:32;17.20;99.90
54260;DHT22;40172;53.022;7.012;2023-08-17T07:26:58;17.20;99.90
54260;DHT22;40172;53.022;7.012;2023-08-17T07:29:23;17.10;99.90
54260;DHT22;40172;53.022;7.012;2023-08-17T07:31:49;17.10;99.90
54260;DHT22;40172;53.022;7.012;2023-08-17T07:34:14;17.30;99.90
54260;DHT22;40172;53.022;7.012;2023-08-17T07:36:40;17.10;99.90
54260;DHT22;40172;53.022;7.012;2023-08-17T07:39:05;17.10;99.90
54260;DHT22;40172;53.022;7.012;2023-08-17T07:41:31;17.10;99.90
54260;DHT22;40172;53.022;7.012;2023-08-17T07:43:57;17.20;99.90
54260;DHT22;40172;53.022;7.012;2023-08-17T07:46:22;17.20;99.90
54260;DHT22;40172;53.022;7.012;2023-08-17T07:48:48;17.20;99.90
54260;DHT22;40172;53.022;7.012;2023-08-17T07:51:14;17.20;99.90
54260;DHT22;40172;53.022;7.012;2023-08-17T07:53:40;17.20;99.90
54260;DHT22;40172;53.022;7.012;2023-08-17T07:56:06;17.30;99.90
54260;DHT22;40172;53.022;7.012;2023-08-17T07:58:31;17.30;99.90
54260;DHT22;40172;53.022;7.012;2023-08-17T08:00:57;17.40;99.90
54260;DHT22;40172;53.022;7.012;2023-08-17T08:03:23;17.40;99.90
54260;DHT22;40172;53.022;7.012;2023-08-17T08:05:48;17.30;99.90
54260;DHT22;40172;53.022;7.012;2023-08-17T08:08:14;17.30;99.90
54260;DHT22;40172;53.022;7.012;2023-08-17T08:10:41;17.40;99.90
54260;DHT22;40172;53.022;7.012;2023-08-17T08:13:07;17.40;99.90
54260;DHT22;40172;53.022;7.012;2023-08-17T08:15:36;17.40;99.90
54260;DHT22;40172;53.022;7.012;2023-08-17T08:18:01;17.40;99.90
54260;DHT22;40172;53.022;7.012;2023-08-17T08:20:27;17.40;99.90
54260;DHT22;40172;53.022;7.012;2023-08-17T08:22:52;17.40;99.90
54260;DHT22;40172;53.022;7.012;2023-08-17T08:25:18;17.40;99.90
54260;DHT22;40172;53.022;7.012;2023-08-17T08:27:44;17.40;99.90
54260;DHT22;40172;53.022;7.012;2023-08-17T08:30:09;17.40;99.90
54260;DHT22;40172;53.022;7.012;2023-08-17T08:32:35;17.50;99.90
54260;DHT22;40172;53.022;7.012;2023-08-17T08:35:02;17.50;99.90
54260;DHT22;40172;53.022;7.012;2023-08-17T08:37:27;17.60;99.90
54260;DHT22;40172;53.022;7.012;2023-08-17T08:39:54;18.50;99.90
54260;DHT22;40172;53.022;7.012;2023-08-17T08:42:21;17.80;99.90
54260;DHT22;40172;53.022;7.012;2023-08-17T08:44:47;18.70;99.90
54260;DHT22;40172;53.022;7.012;2023-08-17T08:47:14;18.10;99.90
54260;DHT22;40172;53.022;7.012;2023-08-17T08:49:54;18.20;99.90
54260;DHT22;40172;53.022;7.012;2023-08-17T08:52:23;18.20;99.90
54260;DHT22;40172;53.022;7.012;2023-08-17T08:54:54;18.20;99.90
54260;DHT22;40172;53.022;7.012;2023-08-17T08:57:23;18.20;99.90
54260;DHT22;40172;53.022;7.012;2023-08-17T08:59:49;18.20;99.90
54260;DHT22;40172;53.022;7.012;2023-08-17T09:02:16;18.20;99.90
54260;DHT22;40172;53.022;7.012;2023-08-17T09:04:45;18.30;99.90
54260;DHT22;40172;53.022;7.012;2023-08-17T09:07:16;18.30;99.90
54260;DHT22;40172;53.022;7.012;2023-08-17T09:09:44;18.30;99.90
54260;DHT22;40172;53.022;7.012;2023-08-17T09:12:10;19.10;99.90
54260;DHT22;40172;53.022;7.012;2023-08-17T09:14:36;18.30;99.90
54260;DHT22;40172;53.022;7.012;2023-08-17T09:17:03;18.30;99.90
54260;DHT22;40172;53.022;7.012;2023-08-17T09:19:32;18.30;99.90
54260;DHT22;40172;53.022;7.012;2023-08-17T09:21:58;18.30;99.90
54260;DHT22;40172;53.022;7.012;2023-08-17T09:24:24;18.40;99.90
54260;DHT22;40172;53.022;7.012;2023-08-17T09:26:58;19.70;99.90
54260;DHT22;40172;53.022;7.012;2023-08-17T09:29:25;18.50;99.90
54260;DHT22;40172;53.022;7.012;2023-08-17T09:31:51;18.60;99.90
54260;DHT22;40172;53.022;7.012;2023-08-17T09:34:18;19.50;99.90
54260;DHT22;40172;53.022;7.012;2023-08-17T09:36:48;18.70;99.90
54260;DHT22;40172;53.022;7.012;2023-08-17T09:39:15;18.80;99.90
54260;DHT22;40172;53.022;7.012;2023-08-17T09:41:41;19.00;99.90
54260;DHT22;40172;53.022;7.012;2023-08-17T09:44:07;19.00;99.90
54260;DHT22;40172;53.022;7.012;2023-08-17T09:46:33;19.10;99.90
54260;DHT22;40172;53.022;7.012;2023-08-17T09:48:58;19.10;99.90
54260;DHT22;40172;53.022;7.012;2023-08-17T09:51:24;19.20;99.90
54260;DHT22;40172;53.022;7.012;2023-08-17T09:53:53;19.20;99.90
54260;DHT22;40172;53.022;7.012;2023-08-17T09:56:21;19.40;99.90
54260;DHT22;40172;53.022;7.012;2023-08-17T09:58:49;19.20;99.90
54260;DHT22;40172;53.022;7.012;2023-08-17T10:01:15;19.50;99.90
54260;DHT22;40172;53.022;7.012;2023-08-17T10:03:44;19.60;99.90
54260;DHT22;40172;53.022;7.012;2023-08-17T10:06:13;19.60;99.90
54260;DHT22;40172;53.022;7.012;2023-08-17T10:08:42;19.90;99.90
54260;DHT22;40172;53.022;7.012;2023-08-17T10:11:08;19.90;99.90
54260;DHT22;40172;53.022;7.012;2023-08-17T10:13:45;20.00;99.90
54260;DHT22;40172;53.022;7.012;2023-08-17T10:16:27;20.00;99.90
54260;DHT22;40172;53.022;7.012;2023-08-17T10:18:59;20.00;99.90
54260;DHT22;40172;53.022;7.012;2023-08-17T10:21:32;20.00;99.90
54260;DHT22;40172;53.022;7.012;2023-08-17T10:23:59;19.90;99.90
54260;DHT22;40172;53.022;7.012;2023-08-17T10:26:25;19.80;99.90
54260;DHT22;40172;53.022;7.012;2023-08-17T10:28:52;19.70;99.90
54260;DHT22;40172;53.022;7.012;2023-08-17T10:31:17;19.60;99.90
54260;DHT22;40172;53.022;7.012;2023-08-17T10:33:44;19.60;99.90
54260;DHT22;40172;53.022;7.012;2023-08-17T10:36:12;19.70;99.90
54260;DHT22;40172;53.022;7.012;2023-08-17T10:38:38;19.80;99.90
54260;DHT22;40172;53.022;7.012;2023-08-17T10:41:12;19.80;99.90
54260;DHT22;40172;53.022;7.012;2023-08-17T10:43:58;19.80;99.90
54260;DHT22;40172;53.022;7.012;2023-08-17T10:46:37;19.80;99.90
54260;DHT22;40172;53.022;7.012;2023-08-17T10:49:06;19.80;99.90
54260;DHT22;40172;53.022;7.012;2023-08-17T10:51:35;19.80;99.90
54260;DHT22;40172;53.022;7.012;2023-08-17T10:54:02;19.90;99.90
54260;DHT22;40172;53.022;7.012;2023-08-17T10:56:29;19.90;99.90
54260;DHT22;40172;53.022;7.012;2023-08-17T10:59:00;20.00;99.90
54260;DHT22;40172;53.022;7.012;2023-08-17T11:01:36;20.00;99.90
54260;DHT22;40172;53.022;7.012;2023-08-17T11:04:11;20.00;99.90
54260;DHT22;40172;53.022;7.012;2023-08-17T11:06:38;20.00;99.90
54260;DHT22;40172;53.022;7.012;2023-08-17T11:09:08;19.90;99.90
54260;DHT22;40172;53.022;7.012;2023-08-17T11:11:34;19.80;99.90
54260;DHT22;40172;53.022;7.012;2023-08-17T11:13:59;20.00;99.90
54260;DHT22;40172;53.022;7.012;2023-08-17T11:16:25;20.00;99.90
54260;DHT22;40172;53.022;7.012;2023-08-17T11:18:51;20.20;99.90
54260;DHT22;40172;53.022;7.012;2023-08-17T11:21:17;20.90;99.90
54260;DHT22;40172;53.022;7.012;2023-08-17T11:23:43;20.70;99.90
54260;DHT22;40172;53.022;7.012;2023-08-17T11:26:09;20.90;99.90
54260;DHT22;40172;53.022;7.012;2023-08-17T11:28:35;21.00;99.90
54260;DHT22;40172;53.022;7.012;2023-08-17T11:31:07;21.00;99.90
54260;DHT22;40172;53.022;7.012;2023-08-17T11:33:37;21.00;99.90
54260;DHT22;40172;53.022;7.012;2023-08-17T11:36:04;21.00;99.90
54260;DHT22;40172;53.022;7.012;2023-08-17T11:38:36;21.00;99.90
54260;DHT22;40172;53.022;7.012;2023-08-17T11:41:02;21.10;99.90
54260;DHT22;40172;53.022;7.012;2023-08-17T11:43:32;21.20;99.90
54260;DHT22;40172;53.022;7.012;2023-08-17T11:45:59;21.20;99.90
54260;DHT22;40172;53.022;7.012;2023-08-17T11:48:25;21.10;99.90
54260;DHT22;40172;53.022;7.012;2023-08-17T11:50:52;21.10;99.90
54260;DHT22;40172;53.022;7.012;2023-08-17T11:53:17;21.00;99.90
54260;DHT22;40172;53.022;7.012;2023-08-17T11:55:43;21.00;99.90
54260;DHT22;40172;53.022;7.012;2023-08-17T11:58:09;21.10;99.90
54260;DHT22;40172;53.022;7.012;2023-08-17T12:00:36;21.10;99.90
54260;DHT22;40172;53.022;7.012;2023-08-17T12:03:02;21.10;99.90
54260;DHT22;40172;53.022;7.012;2023-08-17T12:05:31;21.10;99.90
54260;DHT22;40172;53.022;7.012;2023-08-17T12:07:59;21.00;99.90
54260;DHT22;40172;53.022;7.012;2023-08-17T12:10:28;21.00;99.90
54260;DHT22;40172;53.022;7.012;2023-08-17T12:12:56;21.10;99.90
54260;DHT22;40172;53.022;7.012;2023-08-17T12:15:22;21.10;99.90
54260;DHT22;40172;53.022;7.012;2023-08-17T12:17:49;21.10;99.90
54260;DHT22;40172;53.022;7.012;2023-08-17T12:20:20;21.20;99.90
54260;DHT22;40172;53.022;7.012;2023-08-17T12:22:47;21.10;99.90
54260;DHT22;40172;53.022;7.012;2023-08-17T12:25:13;21.10;99.90
54260;DHT22;40172;53.022;7.012;2023-08-17T12:27:39;21.10;99.90
54260;DHT22;40172;53.022;7.012;2023-08-17T12:30:11;21.00;99.90
54260;DHT22;40172;53.022;7.012;2023-08-17T12:32:37;21.00;99.90
54260;DHT22;40172;53.022;7.012;2023-08-17T12:35:03;20.90;99.90
54260;DHT22;40172;53.022;7.012;2023-08-17T12:37:29;20.90;99.90
54260;DHT22;40172;53.022;7.012;2023-08-17T12:39:54;20.80;99.90
54260;DHT22;40172;53.022;7.012;2023-08-17T12:42:20;20.80;99.90
54260;DHT22;40172;53.022;7.012;2023-08-17T12:44:46;20.80;99.90
54260;DHT22;40172;53.022;7.012;2023-08-17T12:47:11;20.80;99.90
54260;DHT22;40172;53.022;7.012;2023-08-17T12:49:37;20.90;99.90
54260;DHT22;40172;53.022;7.012;2023-08-17T12:52:03;20.90;99.90
54260;DHT22;40172;53.022;7.012;2023-08-17T12:54:28;20.90;99.90
54260;DHT22;40172;53.022;7.012;2023-08-17T12:56:54;21.00;99.90
54260;DHT22;40172;53.022;7.012;2023-08-17T12:59:19;21.00;99.90
54260;DHT22;40172;53.022;7.012;2023-08-17T13:01:45;20.90;99.90
54260;DHT22;40172;53.022;7.012;2023-08-17T13:04:11;20.90;99.90
54260;DHT22;40172;53.022;7.012;2023-08-17T13:06:37;21.30;99.90
54260;DHT22;40172;53.022;7.012;2023-08-17T13:09:03;20.90;99.90
54260;DHT22;40172;53.022;7.012;2023-08-17T13:11:28;20.90;99.90
54260;DHT22;40172;53.022;7.012;2023-08-17T13:13:54;20.80;99.90
54260;DHT22;40172;53.022;7.012;2023-08-17T13:16:19;20.70;99.90
54260;DHT22;40172;53.022;7.012;2023-08-17T13:18:48;20.60;99.90
54260;DHT22;40172;53.022;7.012;2023-08-17T13:21:13;20.50;99.90
54260;DHT22;40172;53.022;7.012;2023-08-17T13:23:41;20.40;99.90
54260;DHT22;40172;53.022;7.012;2023-08-17T13:26:07;20.40;99.90
54260;DHT22;40172;53.022;7.012;2023-08-17T13:28:33;20.30;99.90
54260;DHT22;40172;53.022;7.012;2023-08-17T13:30:58;20.20;99.90
54260;DHT22;40172;53.022;7.012;2023-08-17T13:33:24;20.20;99.90
54260;DHT22;40172;53.022;7.012;2023-08-17T13:35:50;20.10;99.90
54260;DHT22;40172;53.022;7.012;2023-08-17T13:38:17;20.10;99.90
54260;DHT22;40172;53.022;7.012;2023-08-17T13:40:42;20.10;99.90
54260;DHT22;40172;53.022;7.012;2023-08-17T13:43:08;20.00;99.90
54260;DHT22;40172;53.022;7.012;2023-08-17T13:45:38;20.00;99.90
54260;DHT22;40172;53.022;7.012;2023-08-17T13:48:08;20.00;99.90
54260;DHT22;40172;53.022;7.012;2023-08-17T13:50:36;19.90;99.90
54260;DHT22;40172;53.022;7.012;2023-08-17T13:53:02;19.90;99.90
54260;DHT22;40172;53.022;7.012;2023-08-17T13:55:28;19.90;99.90
54260;DHT22;40172;53.022;7.012;2023-08-17T13:57:54;19.90;99.90
54260;DHT22;40172;53.022;7.012;2023-08-17T14:00:24;19.90;99.90
54260;DHT22;40172;53.022;7.012;2023-08-17T14:02:50;19.90;99.90
54260;DHT22;40172;53.022;7.012;2023-08-17T14:05:16;19.90;99.90
54260;DHT22;40172;53.022;7.012;2023-08-17T14:07:42;19.90;99.90
54260;DHT22;40172;53.022;7.012;2023-08-17T14:10:08;19.80;99.90
54260;DHT22;40172;53.022;7.012;2023-08-17T14:12:33;19.80;99.90
54260;DHT22;40172;53.022;7.012;2023-08-17T14:14:59;19.80;99.90
54260;DHT22;40172;53.022;7.012;2023-08-17T14:17:25;19.80;99.90
54260;DHT22;40172;53.022;7.012;2023-08-17T14:19:51;19.80;99.90
54260;DHT22;40172;53.022;7.012;2023-08-17T14:22:16;19.80;99.90
54260;DHT22;40172;53.022;7.012;2023-08-17T14:24:42;19.80;99.90
54260;DHT22;40172;53.022;7.012;2023-08-17T14:27:08;19.70;99.90
54260;DHT22;40172;53.022;7.012;2023-08-17T14:29:33;19.90;99.90
54260;DHT22;40172;53.022;7.012;2023-08-17T14:31:59;19.90;99.90
54260;DHT22;40172;53.022;7.012;2023-08-17T14:34:25;19.90;99.90
54260;DHT22;40172;53.022;7.012;2023-08-17T14:36:50;19.90;99.90
54260;DHT22;40172;53.022;7.012;2023-08-17T14:39:16;19.90;99.90
54260;DHT22;40172;53.022;7.012;2023-08-17T14:41:42;19.90;99.90
54260;DHT22;40172;53.022;7.012;2023-08-17T14:44:07;19.90;99.90
54260;DHT22;40172;53.022;7.012;2023-08-17T14:46:33;19.90;99.90
54260;DHT22;40172;53.022;7.012;2023-08-17T14:48:58;20.00;99.90
54260;DHT22;40172;53.022;7.012;2023-08-17T14:51:24;19.90;99.90
54260;DHT22;40172;53.022;7.012;2023-08-17T14:53:50;19.90;99.90
54260;DHT22;40172;53.022;7.012;2023-08-17T14:56:16;19.90;99.90
54260;DHT22;40172;53.022;7.012;2023-08-17T14:58:42;19.90;99.90
54260;DHT22;40172;53.022;7.012;2023-08-17T15:01:08;19.90;99.90
54260;DHT22;40172;53.022;7.012;2023-08-17T15:03:33;19.90;99.90
54260;DHT22;40172;53.022;7.012;2023-08-17T15:05:59;20.00;99.90
54260;DHT22;40172;53.022;7.012;2023-08-17T15:08:25;20.00;99.90
54260;DHT22;40172;53.022;7.012;2023-08-17T15:10:50;20.00;99.90
54260;DHT22;40172;53.022;7.012;2023-08-17T15:13:16;20.00;99.90
54260;DHT22;40172;53.022;7.012;2023-08-17T15:15:43;19.90;99.90
54260;DHT22;40172;53.022;7.012;2023-08-17T15:18:09;19.90;99.90
54260;DHT22;40172;53.022;7.012;2023-08-17T15:20:35;19.80;99.90
54260;DHT22;40172;53.022;7.012;2023-08-17T15:23:01;19.80;99.90
54260;DHT22;40172;53.022;7.012;2023-08-17T15:25:27;19.90;99.90